createdAt,value
2023-06-04T00:03:45.518Z,9.89
2023-06-04T00:09:48.213Z,9.76
2023-06-04T00:15:50.362Z,9.61
2023-06-04T00:21:52.313Z,9.54
2023-06-04T00:27:54.278Z,9.26
2023-06-04T00:33:56.244Z,9.35
2023-06-04T00:39:58.285Z,9.18
2023-06-04T00:46:00.743Z,9.12
2023-06-04T00:52:03.283Z,8.95
2023-06-04T00:58:05.282Z,8.91
2023-06-04T01:04:13.413Z,8.77
2023-06-04T01:10:16.521Z,8.88
2023-06-04T01:16:18.597Z,8.82
2023-06-04T01:22:52.505Z,8.73
2023-06-04T01:28:57.212Z,8.70
2023-06-04T01:34:59.834Z,8.60
2023-06-04T01:41:02.764Z,8.56
2023-06-04T01:47:05.069Z,8.47
2023-06-04T01:53:07.340Z,8.44
2023-06-04T01:59:12.953Z,8.14
2023-06-04T02:05:15.801Z,8.00
2023-06-04T02:11:17.993Z,7.94
2023-06-04T02:17:19.927Z,7.88
2023-06-04T02:23:22.039Z,7.74
2023-06-04T02:29:24.101Z,7.81
2023-06-04T02:35:26.132Z,7.62
2023-06-04T02:41:28.096Z,7.61
2023-06-04T02:47:30.053Z,7.77
2023-06-04T02:53:32.027Z,7.85
2023-06-04T02:59:33.968Z,7.56
2023-06-04T03:05:37.887Z,7.31
2023-06-04T03:11:40.503Z,7.35
2023-06-04T03:17:43.566Z,7.23
2023-06-04T03:23:45.827Z,7.31
2023-06-04T03:29:50.666Z,7.18
2023-06-04T03:35:53.692Z,7.24
2023-06-04T03:41:56.269Z,7.34
2023-06-04T03:47:58.302Z,7.36
2023-06-04T03:54:07.653Z,7.49
2023-06-04T04:00:24.951Z,7.59
2023-06-04T04:06:27.114Z,7.98
2023-06-04T04:12:29.202Z,7.91
2023-06-04T04:18:35.240Z,8.14
2023-06-04T04:24:38.160Z,8.49
2023-06-04T04:30:41.621Z,8.81
2023-06-04T04:36:45.195Z,9.18
2023-06-04T04:42:47.319Z,9.52
2023-06-04T04:48:49.282Z,9.72
2023-06-04T04:54:51.832Z,10.05
2023-06-04T05:00:53.776Z,10.36
2023-06-04T05:06:55.776Z,10.72
2023-06-04T05:13:01.689Z,11.00
2023-06-04T05:19:03.897Z,11.34
2023-06-04T05:25:07.427Z,11.75
2023-06-04T05:31:09.815Z,12.01
2023-06-04T05:37:12.668Z,12.14
2023-06-04T05:43:14.811Z,12.43
2023-06-04T05:49:17.994Z,12.81
2023-06-04T05:55:20.904Z,13.26
2023-06-04T06:01:22.873Z,13.71
2023-06-04T06:07:24.834Z,14.04
2023-06-04T06:13:27.010Z,14.23
2023-06-04T06:19:28.963Z,14.37
2023-06-04T06:25:30.937Z,14.63
2023-06-04T06:31:32.999Z,15.25
2023-06-04T06:37:35.049Z,15.44
2023-06-04T06:43:37.095Z,15.88
2023-06-04T06:49:39.110Z,16.41
2023-06-04T06:55:41.186Z,17.06
2023-06-04T07:01:43.198Z,17.43
2023-06-04T07:07:45.161Z,17.81
2023-06-04T07:13:47.247Z,18.47
2023-06-04T07:19:49.247Z,18.43
2023-06-04T07:25:51.422Z,18.86
2023-06-04T07:31:53.506Z,19.59
2023-06-04T07:37:55.538Z,19.68
2023-06-04T07:43:57.523Z,20.40
2023-06-04T07:50:03.196Z,20.68
2023-06-04T07:56:07.286Z,21.42
2023-06-04T08:02:09.675Z,21.87
2023-06-04T08:08:11.622Z,22.35
2023-06-04T08:14:14.167Z,22.84
2023-06-04T08:20:16.699Z,23.37
2023-06-04T08:26:18.720Z,23.09
2023-06-04T08:32:20.650Z,23.15
2023-06-04T08:38:22.920Z,23.75
2023-06-04T08:44:28.440Z,24.38
2023-06-04T08:50:30.832Z,24.32
2023-06-04T08:56:33.986Z,24.38
2023-06-04T09:02:39.816Z,24.22
2023-06-04T09:08:53.755Z,24.37
2023-06-04T09:14:59.398Z,23.63
2023-06-04T09:21:09.711Z,24.44
2023-06-04T09:27:20.357Z,25.31
2023-06-04T09:33:24.680Z,25.78
2023-06-04T09:39:28.072Z,26.41
2023-06-04T09:45:45.400Z,26.77
2023-06-04T09:51:56.557Z,26.90
2023-06-04T09:58:00.238Z,27.00
2023-06-04T10:04:07.721Z,27.19
2023-06-04T10:10:20.019Z,26.44
2023-06-04T10:16:33.410Z,26.30
2023-06-04T10:22:40.570Z,27.58
2023-06-04T10:28:44.045Z,28.03
2023-06-04T10:34:47.515Z,27.05
2023-06-04T10:40:49.546Z,26.87
2023-06-04T10:53:05.025Z,28.67
2023-06-04T10:59:18.649Z,27.03
2023-06-04T11:05:20.903Z,26.24
2023-06-04T11:11:24.008Z,27.28
2023-06-04T11:17:34.258Z,27.79
2023-06-04T11:23:36.276Z,27.22
2023-06-04T11:29:38.423Z,27.14
2023-06-04T11:35:44.319Z,26.74
2023-06-04T11:41:46.741Z,26.80
2023-06-04T11:47:50.586Z,26.95
2023-06-04T11:53:52.926Z,26.92
2023-06-04T11:59:55.914Z,27.89
2023-06-04T12:05:57.925Z,29.00
2023-06-04T12:12:01.465Z,30.29
2023-06-04T12:18:07.214Z,31.24
2023-06-04T12:24:11.750Z,31.04
2023-06-04T12:30:13.885Z,32.14
2023-06-04T12:36:15.848Z,31.35
2023-06-04T12:42:20.278Z,31.47
2023-06-04T12:48:22.322Z,31.10
2023-06-04T12:54:24.410Z,31.26
2023-06-04T13:00:26.487Z,32.13
2023-06-04T13:06:28.468Z,31.07
2023-06-04T13:12:31.631Z,31.19
2023-06-04T13:18:33.828Z,31.32
2023-06-04T13:24:35.983Z,31.78
2023-06-04T13:30:40.503Z,32.83
2023-06-04T13:36:42.868Z,32.41
2023-06-04T13:42:44.928Z,32.33
2023-06-04T13:48:46.942Z,31.52
2023-06-04T13:54:48.853Z,31.48
2023-06-04T14:00:51.215Z,31.44
2023-06-04T14:07:05.019Z,31.93
2023-06-04T14:13:09.986Z,32.18
2023-06-04T14:19:15.890Z,32.65
2023-06-04T14:25:17.855Z,32.27
2023-06-04T14:31:19.994Z,32.73
2023-06-04T14:37:22.144Z,32.48
2023-06-04T14:43:25.164Z,32.50
2023-06-04T14:49:27.126Z,32.28
2023-06-04T14:55:29.108Z,32.61
2023-06-04T15:01:31.282Z,32.46
2023-06-04T15:07:36.595Z,32.43
2023-06-04T15:13:38.837Z,31.48
2023-06-04T15:19:40.827Z,32.03
2023-06-04T15:25:42.805Z,31.26
2023-06-04T15:31:44.819Z,30.92
2023-06-04T15:37:46.941Z,30.57
2023-06-04T15:43:48.921Z,29.81
2023-06-04T15:49:50.867Z,29.55
2023-06-04T15:55:52.890Z,29.03
2023-06-04T16:01:54.831Z,28.72
2023-06-04T16:07:56.771Z,28.98
2023-06-04T16:13:58.739Z,29.03
2023-06-04T16:20:00.774Z,28.77
2023-06-04T16:26:02.798Z,29.34
2023-06-04T16:32:04.886Z,30.21
2023-06-04T16:38:06.818Z,30.90
2023-06-04T16:44:08.788Z,32.15
2023-06-04T16:50:11.734Z,33.30
2023-06-04T16:56:15.157Z,33.46
2023-06-04T17:02:17.398Z,33.39
2023-06-04T17:08:19.520Z,33.07
2023-06-04T17:14:21.487Z,33.85
2023-06-04T17:20:23.426Z,33.27
2023-06-04T17:26:26.773Z,33.72
2023-06-04T17:32:28.849Z,33.62
2023-06-04T17:38:31.112Z,33.25
2023-06-04T17:44:33.056Z,33.69
2023-06-04T17:50:35.085Z,33.78
2023-06-04T17:56:37.118Z,33.43
2023-06-04T18:02:39.126Z,32.71
2023-06-04T18:08:41.121Z,32.27
2023-06-04T18:14:43.702Z,32.11
2023-06-04T18:20:45.705Z,31.35
2023-06-04T18:26:47.638Z,30.97
2023-06-04T18:32:49.855Z,30.36
2023-06-04T18:38:51.833Z,29.10
2023-06-04T18:44:53.784Z,27.46
2023-06-04T18:50:55.736Z,25.27
2023-06-04T18:56:57.716Z,23.53
2023-06-04T19:02:59.762Z,22.38
2023-06-04T19:09:02.349Z,21.28
2023-06-04T19:15:06.988Z,20.21
2023-06-04T19:21:09.113Z,19.24
2023-06-04T19:27:11.134Z,18.95
2023-06-04T19:33:13.555Z,18.39
2023-06-04T19:39:15.886Z,17.73
2023-06-04T19:45:18.134Z,17.37
2023-06-04T19:51:21.990Z,17.16
2023-06-04T19:57:24.311Z,16.80
2023-06-04T20:03:27.536Z,16.68
2023-06-04T20:09:29.665Z,16.55
2023-06-04T20:15:34.318Z,16.31
2023-06-04T20:21:37.850Z,16.12
2023-06-04T20:27:39.803Z,16.04
2023-06-04T20:33:41.833Z,15.97
2023-06-04T20:39:48.537Z,15.57
2023-06-04T20:45:52.296Z,15.34
2023-06-04T20:51:54.285Z,15.29
2023-06-04T20:57:56.227Z,15.28
2023-06-04T21:04:00.973Z,15.11
2023-06-04T21:10:03.851Z,14.99
2023-06-04T21:16:06.043Z,14.93
2023-06-04T21:22:08.073Z,15.02
2023-06-04T21:28:10.121Z,14.96
2023-06-04T21:34:12.104Z,14.85
2023-06-04T21:40:15.149Z,14.91
2023-06-04T21:46:24.637Z,14.97
2023-06-04T21:52:26.800Z,14.95
2023-06-04T21:58:28.862Z,14.82
2023-06-04T22:04:30.748Z,14.61
2023-06-04T22:10:32.698Z,14.01
2023-06-04T22:16:34.687Z,13.92
2023-06-04T22:22:36.720Z,13.61
2023-06-04T22:28:38.979Z,13.28
2023-06-04T22:34:40.910Z,13.01
2023-06-04T22:40:48.078Z,12.82
2023-06-04T22:46:50.132Z,12.54
2023-06-04T22:52:52.734Z,12.35
2023-06-04T22:58:54.707Z,12.14
2023-06-04T23:05:08.839Z,12.14
2023-06-04T23:11:10.890Z,11.98
2023-06-04T23:17:25.877Z,11.84
2023-06-04T23:23:34.435Z,11.71
2023-06-04T23:29:36.925Z,11.51
2023-06-04T23:35:39.386Z,11.51
2023-06-04T23:41:41.478Z,11.35
2023-06-04T23:47:43.397Z,11.41
2023-06-04T23:53:46.928Z,11.62
2023-06-04T23:59:48.950Z,11.63
